Time;durP1;ratioP1;P1;durP2;ratioP2;P2;SDS_P1;SDS_P2;PMS_P1;PMS_P2;Temp;Humidity;BMP_temperature;BMP_pressure;BME280_temperature;BME280_humidity;BME280_pressure;Samples;Min_cycle;Max_cycle;Signal;HPM_P1;HPM_P2
2023/04/03 00:01:29;;;;;;;7.12;4.90;;;;;;;5.95;100.00;100291.81;5568159;32;33908;-66
2023/04/03 00:04:33;;;;;;;8.30;5.10;;;;;;;5.98;100.00;100288.88;5567209;32;33543;-65
2023/04/03 00:07:35;;;;;;;6.37;4.40;;;;;;;5.95;100.00;100294.44;5567177;32;34577;-65
2023/04/03 00:10:38;;;;;;;6.72;4.70;;;;;;;5.88;100.00;100298.59;5568278;32;34487;-65
2023/04/03 00:13:42;;;;;;;7.15;4.80;;;;;;;5.87;100.00;100287.22;5567974;32;34274;-66
2023/04/03 00:16:44;;;;;;;6.53;4.70;;;;;;;5.94;100.00;100290.16;5568202;32;33535;-66
2023/04/03 00:19:47;;;;;;;6.35;4.50;;;;;;;5.85;100.00;100294.44;5567114;32;33792;-65
2023/04/03 00:22:51;;;;;;;6.00;4.53;;;;;;;5.78;100.00;100288.03;5568030;32;33685;-65
2023/04/03 00:25:53;;;;;;;7.68;5.25;;;;;;;5.84;100.00;100287.50;5567991;32;33775;-66
2023/04/03 00:28:56;;;;;;;5.82;4.70;;;;;;;5.81;100.00;100300.12;5566948;32;33910;-66
2023/04/03 00:31:59;;;;;;;6.87;4.55;;;;;;;5.93;100.00;100301.66;5567180;32;34321;-66
2023/04/03 00:35:02;;;;;;;6.62;4.37;;;;;;;5.90;100.00;100301.94;5575246;31;33794;-66
2023/04/03 00:38:05;;;;;;;6.87;4.72;;;;;;;5.85;100.00;100294.44;5568934;31;34093;-66
2023/04/03 00:41:08;;;;;;;6.45;4.37;;;;;;;5.92;100.00;100305.25;5587383;31;33758;-66
2023/04/03 00:44:22;;;;;;;6.68;4.53;;;;;;;5.86;100.00;100303.97;5587155;31;33817;-65
2023/04/03 00:47:25;;;;;;;6.45;4.45;;;;;;;5.84;100.00;100298.03;5587321;31;33736;-66
2023/04/03 00:50:29;;;;;;;4.95;3.85;;;;;;;5.82;100.00;100301.75;5587460;31;34449;-65
2023/04/03 00:54:01;;;;;;;6.82;4.82;;;;;;;5.85;100.00;100306.75;5587129;31;33936;-66
2023/04/03 00:57:06;;;;;;;5.82;4.03;;;;;;;5.79;100.00;100310.78;5570142;31;34271;-66
2023/04/03 01:00:14;;;;;;;6.40;4.35;;;;;;;5.87;100.00;100312.72;5573777;31;34074;-67
2023/04/03 01:03:17;;;;;;;6.40;4.30;;;;;;;5.83;100.00;100314.78;5573561;31;33518;-64
2023/04/03 01:06:26;;;;;;;5.57;3.90;;;;;;;5.80;100.00;100322.13;5587235;31;33835;-66
2023/04/03 01:09:29;;;;;;;6.53;4.43;;;;;;;5.82;100.00;100323.66;5587254;31;33642;-66
2023/04/03 01:12:39;;;;;;;7.80;4.47;;;;;;;5.75;99.38;100312.03;5587069;31;33866;-66
2023/04/03 01:15:48;;;;;;;6.50;4.20;;;;;;;5.73;100.00;100321.00;5587138;31;35051;-66
2023/04/03 01:18:51;;;;;;;5.72;4.12;;;;;;;5.76;99.34;100323.38;5587558;31;33556;-66
2023/04/03 01:22:35;;;;;;;7.15;4.30;;;;;;;5.81;99.22;100314.06;5587154;31;33804;-66
2023/04/03 01:25:42;;;;;;;6.40;4.07;;;;;;;5.68;99.30;100314.38;5549329;31;33519;-65
2023/04/03 01:28:44;;;;;;;6.65;3.90;;;;;;;5.65;99.98;100309.38;5573265;31;33957;-66
2023/04/03 01:31:54;;;;;;;5.85;3.80;;;;;;;5.65;100.00;100308.56;5586998;31;33174;-66
2023/04/03 01:34:57;;;;;;;5.62;4.03;;;;;;;5.67;98.87;100317.12;5586613;31;33730;-65
2023/04/03 01:37:59;;;;;;;5.20;3.95;;;;;;;5.55;99.45;100313.81;5586790;31;33786;-66
2023/04/03 01:41:02;;;;;;;5.78;3.62;;;;;;;5.56;98.64;100309.38;5586850;31;33759;-65
2023/04/03 01:44:06;;;;;;;4.35;3.33;;;;;;;5.50;98.49;100313.38;5587040;31;35056;-65
2023/04/03 01:47:08;;;;;;;5.85;3.87;;;;;;;5.47;97.34;100318.09;5586849;31;34687;-65
2023/04/03 01:50:12;;;;;;;4.07;2.97;;;;;;;5.44;98.20;100306.03;5586891;31;34480;-65
2023/04/03 01:53:14;;;;;;;4.50;3.12;;;;;;;5.44;97.72;100324.44;5586786;31;34883;-64
2023/04/03 01:56:17;;;;;;;5.60;3.03;;;;;;;5.34;97.92;100318.34;5586848;31;35121;-65
2023/04/03 01:59:20;;;;;;;6.50;3.45;;;;;;;5.30;97.96;100335.37;5586729;31;33914;-65
2023/04/03 02:02:23;;;;;;;4.87;3.17;;;;;;;5.27;98.91;100329.56;5586791;31;33941;-65
2023/04/03 02:05:26;;;;;;;4.37;2.67;;;;;;;5.33;99.51;100339.50;5586940;31;33761;-67
2023/04/03 02:08:29;;;;;;;5.28;3.50;;;;;;;5.31;98.15;100333.56;5586286;31;33906;-65
2023/04/03 02:11:32;;;;;;;6.07;3.78;;;;;;;5.38;97.56;100337.31;5586846;31;33952;-66
2023/04/03 02:14:35;;;;;;;4.28;2.85;;;;;;;5.21;97.78;100344.06;5586525;31;33654;-66
2023/04/03 02:17:38;;;;;;;4.30;3.10;;;;;;;5.19;98.34;100332.84;5586721;31;33645;-66
2023/04/03 02:20:41;;;;;;;6.07;3.30;;;;;;;5.20;99.23;100342.41;5586438;31;33809;-64
2023/04/03 02:23:43;;;;;;;5.72;3.22;;;;;;;5.02;98.80;100336.97;5586340;31;33792;-65
2023/04/03 02:26:46;;;;;;;4.90;3.25;;;;;;;5.08;100.00;100339.03;5586338;31;34433;-66
2023/04/03 02:29:49;;;;;;;5.43;3.17;;;;;;;5.06;100.00;100338.34;5586209;31;33789;-65
2023/04/03 02:32:53;;;;;;;5.22;3.37;;;;;;;4.99;100.00;100339.00;5586505;31;33733;-66
2023/04/03 02:35:56;;;;;;;4.43;2.83;;;;;;;5.00;99.95;100332.78;5572573;31;33840;-65
2023/04/03 02:39:00;;;;;;;4.18;3.20;;;;;;;4.95;100.00;100334.97;5585930;31;33601;-65
2023/04/03 02:42:03;;;;;;;5.07;3.20;;;;;;;4.93;100.00;100335.13;5586235;31;33565;-64
2023/04/03 02:45:07;;;;;;;4.18;3.00;;;;;;;4.88;99.69;100332.06;5572172;31;34577;-66
2023/04/03 02:48:09;;;;;;;4.65;3.05;;;;;;;4.87;100.00;100334.81;5572409;31;34044;-66
2023/04/03 02:51:12;;;;;;;4.87;3.37;;;;;;;4.83;100.00;100336.88;5585834;31;33869;-65
2023/04/03 02:54:15;;;;;;;3.60;2.95;;;;;;;4.81;100.00;100338.78;5586048;31;33945;-65
2023/04/03 02:57:19;;;;;;;4.90;3.10;;;;;;;4.73;100.00;100341.25;5585736;31;33827;-66
2023/04/03 03:00:22;;;;;;;4.82;3.17;;;;;;;4.76;100.00;100341.81;5585804;31;34165;-65
2023/04/03 03:03:25;;;;;;;3.65;2.67;;;;;;;4.71;100.00;100351.06;5585774;31;34639;-66
2023/04/03 03:06:28;;;;;;;4.05;3.08;;;;;;;4.70;100.00;100342.34;5585506;31;35010;-65
2023/04/03 03:09:31;;;;;;;4.85;3.45;;;;;;;4.64;100.00;100342.88;5585935;31;34539;-66
2023/04/03 03:12:35;;;;;;;4.55;3.20;;;;;;;4.59;100.00;100339.81;5585548;31;33906;-67
2023/04/03 03:15:37;;;;;;;4.35;2.90;;;;;;;4.61;100.00;100347.56;5571278;31;34357;-65
2023/04/03 03:18:40;;;;;;;4.00;3.03;;;;;;;4.57;100.00;100343.53;5585563;31;34923;-66
2023/04/03 03:21:44;;;;;;;7.07;3.50;;;;;;;4.50;100.00;100358.16;5588517;31;34265;-66
2023/04/03 03:24:46;;;;;;;6.18;3.65;;;;;;;4.44;100.00;100349.00;5588166;31;33702;-65
2023/04/03 03:27:49;;;;;;;5.45;3.47;;;;;;;4.47;100.00;100355.78;5588180;31;34131;-66
2023/04/03 03:30:52;;;;;;;5.37;3.40;;;;;;;4.43;100.00;100354.38;5588096;31;34006;-66
2023/04/03 03:33:55;;;;;;;5.10;3.70;;;;;;;4.47;100.00;100351.34;5588102;31;34366;-66
2023/04/03 03:36:58;;;;;;;5.87;3.50;;;;;;;4.41;100.00;100351.84;5588051;31;34459;-67
2023/04/03 03:40:01;;;;;;;5.95;3.87;;;;;;;4.37;100.00;100355.72;5587992;31;33746;-65
2023/04/03 03:43:05;;;;;;;6.55;3.90;;;;;;;4.29;100.00;100353.75;5574054;31;34457;-65
2023/04/03 03:46:08;;;;;;;7.75;3.47;;;;;;;4.26;100.00;100345.28;5588282;31;34796;-66
2023/04/03 03:49:11;;;;;;;4.72;3.25;;;;;;;4.22;100.00;100352.56;5587933;31;33543;-65
2023/04/03 03:52:14;;;;;;;5.32;3.80;;;;;;;4.25;100.00;100354.12;5587950;31;34605;-64
2023/04/03 03:55:17;;;;;;;5.85;4.07;;;;;;;4.15;100.00;100351.44;5588066;31;34549;-65
2023/04/03 03:58:24;;;;;;;5.53;3.60;;;;;;;4.12;100.00;100356.91;5588126;31;33560;-67
2023/04/03 04:01:27;;;;;;;6.22;4.28;;;;;;;3.99;100.00;100358.06;5574186;31;33854;-64
2023/04/03 04:04:31;;;;;;;7.43;4.78;;;;;;;3.96;100.00;100348.66;5587564;31;33806;-64
2023/04/03 04:07:33;;;;;;;7.00;4.57;;;;;;;3.98;100.00;100346.72;5587905;31;33814;-66
2023/04/03 04:10:37;;;;;;;5.80;4.50;;;;;;;3.92;100.00;100353.31;5559842;31;34142;-65
2023/04/03 04:13:40;;;;;;;5.25;4.03;;;;;;;3.90;100.00;100349.16;5579885;31;34311;-66
2023/04/03 04:16:44;;;;;;;6.78;4.12;;;;;;;3.82;100.00;100348.97;5563428;31;33960;-66
2023/04/03 04:19:48;;;;;;;5.62;4.30;;;;;;;3.78;100.00;100355.41;5570929;31;34601;-64
2023/04/03 04:22:51;;;;;;;6.40;4.28;;;;;;;3.66;100.00;100354.63;5572326;31;34122;-63
2023/04/03 04:25:54;;;;;;;6.70;4.30;;;;;;;3.69;100.00;100354.38;5573902;31;34464;-65
2023/04/03 04:28:58;;;;;;;5.45;4.20;;;;;;;3.63;100.00;100373.22;5570233;31;33873;-64
2023/04/03 04:32:04;;;;;;;7.12;4.43;;;;;;;3.52;100.00;100361.94;5572989;31;34530;-65
2023/04/03 04:35:08;;;;;;;8.35;4.20;;;;;;;3.49;100.00;100366.47;5583673;31;33860;-65
2023/04/03 04:38:11;;;;;;;10.55;4.30;;;;;;;3.49;100.00;100368.25;5569704;31;33955;-66
2023/04/03 04:41:15;;;;;;;5.25;4.12;;;;;;;3.50;100.00;100364.66;5574308;31;34593;-64
2023/04/03 04:44:19;;;;;;;7.47;4.32;;;;;;;3.43;100.00;100368.75;5582937;31;33606;-65
2023/04/03 04:47:22;;;;;;;7.87;4.70;;;;;;;3.46;100.00;100379.00;5573529;31;35047;-65
2023/04/03 04:50:26;;;;;;;7.85;5.20;;;;;;;3.48;100.00;100377.09;5571751;31;33796;-65
2023/04/03 04:53:30;;;;;;;7.55;4.53;;;;;;;3.52;100.00;100381.12;5567498;31;35091;-64
2023/04/03 04:56:32;;;;;;;7.12;5.03;;;;;;;3.46;100.00;100386.88;5567577;31;33796;-65
2023/04/03 04:59:36;;;;;;;6.07;4.75;;;;;;;3.50;100.00;100381.25;5574448;31;33893;-66
2023/04/03 05:02:41;;;;;;;10.82;4.53;;;;;;;3.62;100.00;100391.72;5587560;31;34414;-64
2023/04/03 05:05:45;;;;;;;7.40;4.72;;;;;;;3.55;100.00;100388.75;5586810;31;34563;-64
2023/04/03 05:08:48;;;;;;;6.78;4.78;;;;;;;3.67;100.00;100390.41;5587257;31;34542;-65
2023/04/03 05:11:51;;;;;;;7.62;4.45;;;;;;;3.70;100.00;100392.75;5584678;31;34649;-64
2023/04/03 05:14:54;;;;;;;5.43;3.72;;;;;;;3.71;100.00;100394.44;5567522;31;32719;-64
2023/04/03 05:17:58;;;;;;;7.30;4.30;;;;;;;3.66;100.00;100395.75;5567116;32;33726;-65
2023/04/03 05:21:01;;;;;;;6.43;4.00;;;;;;;3.71;100.00;100397.06;5567201;32;33852;-64
2023/04/03 05:24:04;;;;;;;5.45;3.90;;;;;;;3.72;100.00;100409.22;5570884;31;34799;-65
2023/04/03 05:27:07;;;;;;;6.57;3.70;;;;;;;3.78;100.00;100411.34;5567260;32;33732;-64
2023/04/03 05:30:11;;;;;;;5.47;3.80;;;;;;;3.74;100.00;100407.28;5558480;31;34099;-66
2023/04/03 05:33:14;;;;;;;7.35;3.67;;;;;;;3.83;100.00;100397.84;5586731;31;34010;-65
2023/04/03 05:36:18;;;;;;;5.55;3.90;;;;;;;3.78;100.00;100403.47;5585490;31;33804;-65
2023/04/03 05:39:22;;;;;;;11.12;4.37;;;;;;;3.78;100.00;100400.00;5583424;31;34543;-64
2023/04/03 05:42:26;;;;;;;5.80;4.03;;;;;;;3.72;100.00;100403.97;5566136;31;33572;-66
2023/04/03 05:45:29;;;;;;;7.62;3.95;;;;;;;3.68;100.00;100406.97;5566817;32;34598;-65
2023/04/03 05:48:33;;;;;;;7.60;4.20;;;;;;;3.63;100.00;100404.69;5559533;31;34489;-65
2023/04/03 05:51:36;;;;;;;6.85;4.28;;;;;;;3.54;100.00;100408.06;5552640;32;33842;-65
2023/04/03 05:54:40;;;;;;;6.43;3.83;;;;;;;3.67;100.00;100419.25;5585139;31;33912;-65
2023/04/03 05:57:43;;;;;;;7.87;4.40;;;;;;;3.60;100.00;100417.22;5581657;31;33939;-65
2023/04/03 06:00:47;;;;;;;6.60;3.70;;;;;;;3.73;100.00;100418.75;5570309;31;33253;-64
2023/04/03 06:03:50;;;;;;;7.10;3.97;;;;;;;3.74;100.00;100409.91;5579307;31;33871;-66
2023/04/03 06:06:55;;;;;;;6.20;4.22;;;;;;;3.74;100.00;100416.94;5560152;31;33779;-64
2023/04/03 06:10:01;;;;;;;5.30;3.90;;;;;;;3.86;100.00;100413.34;5573448;31;34128;-63
2023/04/03 06:13:04;;;;;;;6.50;4.30;;;;;;;3.94;100.00;100416.19;5582701;31;33902;-66
2023/04/03 06:16:11;;;;;;;6.80;4.68;;;;;;;4.09;100.00;100414.09;5568406;31;36321;-65
2023/04/03 06:19:15;;;;;;;6.75;3.95;;;;;;;4.10;100.00;100413.16;5570470;31;33883;-67
2023/04/03 06:22:21;;;;;;;8.10;4.12;;;;;;;4.23;100.00;100419.06;5554401;32;34327;-65
2023/04/03 06:25:24;;;;;;;8.55;4.20;;;;;;;4.31;100.00;100417.44;5570570;31;35330;-66
2023/04/03 06:28:27;;;;;;;10.43;4.30;;;;;;;4.50;100.00;100426.47;5566907;31;34595;-65
2023/04/03 06:31:30;;;;;;;9.70;4.35;;;;;;;4.66;100.00;100425.03;5567083;31;33568;-66
2023/04/03 06:34:33;;;;;;;7.82;4.55;;;;;;;5.03;100.00;100420.13;5574261;31;33691;-66
2023/04/03 06:37:36;;;;;;;6.47;4.05;;;;;;;5.23;100.00;100435.00;5553384;32;34585;-65
2023/04/03 06:40:39;;;;;;;5.90;4.47;;;;;;;5.28;100.00;100429.34;5552567;32;34265;-65
2023/04/03 06:43:43;;;;;;;6.12;4.15;;;;;;;5.42;100.00;100433.44;5566495;31;33675;-66
2023/04/03 06:46:46;;;;;;;6.65;4.20;;;;;;;5.43;100.00;100435.91;5567347;31;33738;-65
2023/04/03 06:49:49;;;;;;;8.10;4.40;;;;;;;5.62;98.86;100438.59;5578735;31;33809;-65
2023/04/03 06:52:56;;;;;;;5.72;3.12;;;;;;;5.72;96.05;100443.06;5566985;31;33954;-65
2023/04/03 06:55:59;;;;;;;3.72;2.72;;;;;;;5.69;91.11;100431.84;5574164;31;33198;-65
2023/04/03 06:59:02;;;;;;;5.12;2.40;;;;;;;5.81;87.85;100442.25;5568838;31;34450;-65
2023/04/03 07:02:05;;;;;;;5.60;2.12;;;;;;;5.97;84.88;100447.84;5558092;32;33789;-65
2023/04/03 07:05:08;;;;;;;4.05;2.25;;;;;;;6.08;82.33;100455.62;5568407;32;34226;-66
2023/04/03 07:08:11;;;;;;;4.28;2.28;;;;;;;6.14;81.93;100465.62;5554419;32;34376;-65
2023/04/03 07:11:14;;;;;;;4.03;2.50;;;;;;;6.28;81.95;100475.75;5568572;32;33840;-66
2023/04/03 07:14:17;;;;;;;4.45;2.70;;;;;;;6.43;79.09;100469.09;5568314;31;33759;-65
2023/04/03 07:17:20;;;;;;;2.58;2.10;;;;;;;6.79;77.65;100470.16;5568742;32;34694;-65
2023/04/03 07:20:22;;;;;;;2.80;1.65;;;;;;;7.24;74.91;100482.69;5573420;31;33843;-65
2023/04/03 07:23:25;;;;;;;5.68;1.95;;;;;;;7.05;71.59;100470.41;5568388;31;34439;-65
2023/04/03 07:26:28;;;;;;;6.60;2.00;;;;;;;6.95;71.77;100473.06;5568630;32;35248;-65
2023/04/03 07:29:31;;;;;;;2.47;1.65;;;;;;;7.28;73.23;100474.34;5570951;31;33733;-65
2023/04/03 07:32:34;;;;;;;2.42;1.40;;;;;;;7.08;69.75;100475.38;5568068;32;33604;-65
2023/04/03 07:35:37;;;;;;;3.45;1.75;;;;;;;7.42;68.17;100471.25;5567933;32;34720;-66
2023/04/03 07:38:40;;;;;;;2.15;1.62;;;;;;;7.82;67.47;100480.63;5568184;32;34955;-66
2023/04/03 07:41:43;;;;;;;2.25;1.50;;;;;;;7.48;67.80;100472.47;5574875;31;33656;-67
2023/04/03 07:44:46;;;;;;;2.42;1.45;;;;;;;7.99;66.13;100481.66;5567776;32;34377;-66
2023/04/03 07:47:49;;;;;;;2.58;1.60;;;;;;;7.98;64.07;100485.28;5567289;32;33732;-66
2023/04/03 07:50:52;;;;;;;2.72;1.62;;;;;;;8.44;63.71;100479.81;5567931;32;33790;-66
2023/04/03 07:53:55;;;;;;;2.75;1.37;;;;;;;8.38;62.88;100484.87;5567966;32;33952;-66
2023/04/03 07:56:58;;;;;;;4.55;1.35;;;;;;;8.47;63.68;100481.34;5568216;31;34478;-66
2023/04/03 08:00:02;;;;;;;1.95;1.48;;;;;;;8.60;61.12;100487.91;5567886;32;33969;-65
2023/04/03 08:03:16;;;;;;;2.47;1.60;;;;;;;8.33;62.70;100493.25;5565528;32;33247;-66
2023/04/03 08:06:19;;;;;;;2.72;1.50;;;;;;;8.58;62.12;100483.75;5567458;31;33887;-65
2023/04/03 08:09:39;;;;;;;4.17;1.60;;;;;;;8.90;59.80;100489.31;5568014;32;34027;-64
2023/04/03 08:12:42;;;;;;;3.28;1.87;;;;;;;8.64;60.73;100489.25;5569169;31;33813;-65
2023/04/03 08:15:45;;;;;;;2.60;1.70;;;;;;;9.21;57.24;100499.41;5574430;31;33976;-66
2023/04/03 08:18:48;;;;;;;5.00;1.80;;;;;;;8.94;58.76;100492.47;5557660;31;34507;-66
2023/04/03 08:21:50;;;;;;;2.95;1.90;;;;;;;8.85;59.22;100493.41;5566499;31;33924;-65
2023/04/03 08:24:54;;;;;;;2.28;1.62;;;;;;;8.48;60.22;100490.91;5587359;31;33825;-65
2023/04/03 08:28:01;;;;;;;2.65;1.50;;;;;;;8.70;59.39;100495.75;5585901;31;33853;-66
2023/04/03 08:31:07;;;;;;;2.35;1.52;;;;;;;9.37;58.54;100500.34;5568488;31;34571;-65
2023/04/03 08:34:11;;;;;;;2.40;1.23;;;;;;;9.56;57.45;100494.81;5571927;31;34310;-64
2023/04/03 08:37:15;;;;;;;2.37;1.40;;;;;;;9.99;54.67;100499.13;5574352;31;33875;-65
2023/04/03 08:40:18;;;;;;;3.15;1.55;;;;;;;9.89;53.36;100495.78;5567451;31;34000;-65
2023/04/03 08:43:44;;;;;;;3.40;1.40;;;;;;;10.19;53.53;100489.13;5575679;31;34018;-66
2023/04/03 08:47:02;;;;;;;3.10;1.40;;;;;;;10.79;52.88;100502.94;5573070;31;33388;-67
2023/04/03 08:50:29;;;;;;;2.85;1.48;;;;;;;10.78;51.43;100501.28;5568801;31;33848;-65
2023/04/03 08:53:39;;;;;;;1.75;1.30;;;;;;;11.31;49.13;100510.50;5587035;31;35022;-66
2023/04/03 08:56:42;;;;;;;1.60;1.15;;;;;;;11.73;47.78;100503.09;5587173;31;33983;-66
2023/04/03 08:59:45;;;;;;;2.65;1.20;;;;;;;10.58;49.71;100504.41;5587060;31;33920;-66
2023/04/03 09:02:53;;;;;;;2.22;1.37;;;;;;;11.21;49.25;100501.91;5584924;31;33726;-66
2023/04/03 09:06:22;;;;;;;1.67;1.40;;;;;;;11.46;47.20;100503.50;5552278;32;34389;-66
2023/04/03 09:09:38;;;;;;;2.78;1.58;;;;;;;11.14;48.25;100504.38;5567088;32;34251;-66
2023/04/03 09:12:53;;;;;;;3.85;1.30;;;;;;;11.48;50.21;100498.00;5553080;32;33882;-67
2023/04/03 09:15:56;;;;;;;1.50;1.08;;;;;;;11.35;47.62;100503.84;5565283;32;33669;-68
2023/04/03 09:19:23;;;;;;;2.15;1.30;;;;;;;10.98;46.66;100503.59;5564481;32;33597;-67
2023/04/03 09:22:28;;;;;;;2.08;1.05;;;;;;;10.87;48.30;100497.63;5566688;32;34251;-67
2023/04/03 09:25:37;;;;;;;1.60;1.20;;;;;;;11.03;48.04;100498.63;5567142;32;34444;-67
2023/04/03 09:28:42;;;;;;;2.50;1.40;;;;;;;11.32;47.13;100506.88;5567233;32;35112;-67
2023/04/03 09:32:14;;;;;;;3.17;1.30;;;;;;;11.23;48.96;100506.03;5563283;31;33789;-67
2023/04/03 09:35:20;;;;;;;1.80;1.35;;;;;;;11.32;46.71;100509.53;5572754;31;33602;-66
2023/04/03 09:38:34;;;;;;;2.58;1.40;;;;;;;11.02;46.96;100502.25;5567736;32;33851;-66
2023/04/03 09:41:37;;;;;;;4.55;1.27;;;;;;;11.17;49.09;100495.28;5570386;31;33896;-66
2023/04/03 09:44:40;;;;;;;2.33;1.30;;;;;;;9.99;50.37;100495.66;5577033;31;33936;-66
2023/04/03 09:47:44;;;;;;;4.62;1.20;;;;;;;11.03;48.90;100494.13;5586588;31;35285;-66
2023/04/03 09:51:02;;;;;;;2.30;1.10;;;;;;;11.60;46.68;100489.50;5571923;31;33824;-67
2023/04/03 09:54:32;;;;;;;1.85;1.40;;;;;;;10.65;48.57;100489.50;5553259;32;33844;-67
2023/04/03 09:57:35;;;;;;;1.70;1.20;;;;;;;10.47;50.26;100487.00;5566764;32;34505;-69
2023/04/03 10:00:40;;;;;;;2.45;1.20;;;;;;;10.78;48.82;100493.31;5567045;32;33888;-66
2023/04/03 10:03:46;;;;;;;2.12;1.40;;;;;;;9.84;50.48;100482.19;5566920;32;33844;-67
2023/04/03 10:06:55;;;;;;;4.05;1.45;;;;;;;9.77;51.02;100489.13;5566306;32;33815;-67
2023/04/03 10:10:14;;;;;;;2.60;1.42;;;;;;;10.14;51.49;100493.22;5566496;32;33936;-66
2023/04/03 10:13:20;;;;;;;2.53;1.40;;;;;;;10.27;50.19;100493.59;5567043;32;33771;-65
2023/04/03 10:16:36;;;;;;;1.60;0.95;;;;;;;9.40;51.92;100497.38;5566234;32;34059;-66
2023/04/03 10:19:49;;;;;;;1.87;1.25;;;;;;;9.32;51.41;100494.69;5566570;32;33822;-67
2023/04/03 10:23:11;;;;;;;3.78;1.00;;;;;;;9.78;52.52;100495.25;5566401;32;35278;-67
2023/04/03 10:26:38;;;;;;;1.92;1.10;;;;;;;10.06;49.32;100496.69;5566069;32;33894;-67
2023/04/03 10:29:54;;;;;;;1.67;1.20;;;;;;;10.49;49.07;100494.78;5552214;32;34041;-67
2023/04/03 10:33:27;;;;;;;2.22;1.30;;;;;;;10.17;48.81;100495.56;5566268;32;33995;-66
2023/04/03 10:36:37;;;;;;;1.60;0.90;;;;;;;10.04;49.95;100494.19;5565754;32;33636;-66
2023/04/03 10:39:52;;;;;;;1.85;1.20;;;;;;;10.23;49.13;100502.88;5565815;32;34760;-66
2023/04/03 10:43:21;;;;;;;1.55;1.10;;;;;;;9.98;48.59;100496.62;5565501;32;34475;-66
2023/04/03 10:46:34;;;;;;;3.05;1.23;;;;;;;9.84;47.98;100498.09;5565974;32;33733;-66
2023/04/03 10:50:01;;;;;;;2.85;0.90;;;;;;;9.72;49.65;100495.88;5565964;32;34944;-68
2023/04/03 10:53:11;;;;;;;2.50;1.00;;;;;;;10.14;46.98;100482.59;5566636;31;33698;-67
2023/04/03 10:56:32;;;;;;;2.55;1.02;;;;;;;9.73;48.80;100481.66;5565379;32;33977;-67
2023/04/03 10:59:49;;;;;;;4.03;0.90;;;;;;;10.30;49.21;100490.63;5551708;32;33810;-67
2023/04/03 11:03:03;;;;;;;3.15;1.10;;;;;;;10.38;48.28;100488.81;5565459;32;34244;-67
2023/04/03 11:06:10;;;;;;;2.37;1.10;;;;;;;10.01;48.87;100483.91;5558033;31;34409;-66
2023/04/03 11:09:26;;;;;;;6.43;1.02;;;;;;;10.20;47.42;100492.59;5565488;31;33911;-67
2023/04/03 11:12:52;;;;;;;0.75;0.73;;;;;;;10.08;48.18;100489.38;5565106;32;34343;-67
2023/04/03 11:15:57;;;;;;;1.83;1.05;;;;;;;10.25;47.83;100482.34;5565403;32;33967;-67
2023/04/03 11:19:13;;;;;;;2.78;1.10;;;;;;;10.48;46.51;100482.53;5564684;32;33679;-68
2023/04/03 11:22:23;;;;;;;1.45;0.90;;;;;;;10.94;46.49;100476.53;5563391;31;34542;-67
2023/04/03 11:25:26;;;;;;;2.42;1.12;;;;;;;11.31;44.60;100484.78;5564951;31;34058;-67
2023/04/03 11:28:29;;;;;;;1.23;0.82;;;;;;;11.38;44.92;100484.91;5564870;32;33852;-67
2023/04/03 11:32:06;;;;;;;1.42;1.00;;;;;;;11.21;43.76;100472.69;5564271;32;34025;-67
2023/04/03 11:35:10;;;;;;;1.92;1.10;;;;;;;11.40;44.72;100467.00;5564668;32;33923;-67
2023/04/03 11:38:26;;;;;;;2.55;1.08;;;;;;;11.18;44.95;100467.72;5551073;32;34300;-67
2023/04/03 11:41:31;;;;;;;1.20;0.80;;;;;;;11.14;44.32;100461.06;5566414;32;34073;-67
2023/04/03 11:44:37;;;;;;;1.12;0.82;;;;;;;10.99;44.29;100458.28;5567323;32;34520;-66
2023/04/03 11:47:51;;;;;;;2.28;0.90;;;;;;;10.96;45.58;100455.13;5569948;32;33694;-69
2023/04/03 11:50:58;;;;;;;2.08;0.88;;;;;;;11.15;43.26;100452.12;5567507;32;33734;-66
2023/04/03 11:54:38;;;;;;;1.90;1.00;;;;;;;10.71;45.92;100449.84;5569368;31;33719;-66
2023/04/03 11:58:14;;;;;;;3.08;0.95;;;;;;;10.29;46.38;100455.31;5572080;31;34594;-66
2023/04/03 12:01:43;;;;;;;3.50;0.85;;;;;;;10.28;46.62;100461.63;5545360;31;35104;-66
2023/04/03 12:05:27;;;;;;;1.23;0.90;;;;;;;10.36;47.22;100453.66;5553357;32;33703;-65
2023/04/03 12:08:32;;;;;;;2.42;0.80;;;;;;;9.93;47.12;100456.53;5567337;32;33927;-66
2023/04/03 12:11:36;;;;;;;1.20;0.80;;;;;;;9.73;47.59;100457.81;5567368;32;33763;-67
2023/04/03 12:14:40;;;;;;;2.42;0.93;;;;;;;10.18;47.38;100455.62;5567625;32;33878;-67
2023/04/03 12:17:43;;;;;;;1.33;1.00;;;;;;;9.92;47.27;100449.59;5567473;31;34524;-67
2023/04/03 12:20:48;;;;;;;2.20;1.20;;;;;;;9.91;49.53;100442.62;5567261;31;34811;-67
2023/04/03 12:24:00;;;;;;;1.45;0.90;;;;;;;10.23;47.72;100440.06;5569882;31;34015;-66
2023/04/03 12:27:08;;;;;;;2.35;0.85;;;;;;;10.80;46.67;100450.69;5567966;31;33862;-66
2023/04/03 12:30:26;;;;;;;1.15;0.80;;;;;;;10.71;45.41;100449.03;5567311;32;33699;-66
2023/04/03 12:33:59;;;;;;;1.33;1.08;;;;;;;10.60;46.08;100444.88;5567311;32;34062;-66
2023/04/03 12:37:39;;;;;;;2.75;0.80;;;;;;;10.37;46.99;100436.75;5557624;32;34184;-67
2023/04/03 12:40:42;;;;;;;2.00;1.10;;;;;;;10.34;46.13;100436.28;5568812;31;33963;-66
2023/04/03 12:43:54;;;;;;;4.15;0.85;;;;;;;10.14;47.91;100445.50;5566105;32;33705;-66
2023/04/03 12:47:01;;;;;;;2.12;0.90;;;;;;;10.45;46.16;100436.78;5567332;32;35363;-66
2023/04/03 12:50:17;;;;;;;3.47;1.12;;;;;;;10.41;47.79;100431.94;5567979;31;33609;-67
2023/04/03 12:53:34;;;;;;;2.05;1.00;;;;;;;10.44;46.88;100431.62;5567711;32;34456;-65
2023/04/03 12:56:37;;;;;;;2.60;1.17;;;;;;;9.90;47.62;100422.41;5553571;31;33787;-66
2023/04/03 12:59:41;;;;;;;1.12;0.90;;;;;;;9.91;47.53;100426.72;5571373;31;33212;-66
2023/04/03 13:02:46;;;;;;;6.18;1.10;;;;;;;10.26;47.37;100425.66;5586215;31;34531;-67
2023/04/03 13:05:49;;;;;;;1.27;0.88;;;;;;;9.91;47.62;100429.38;5573820;31;34394;-66
2023/04/03 13:08:58;;;;;;;1.50;0.93;;;;;;;10.46;46.50;100419.84;5567188;31;33596;-65
2023/04/03 13:12:09;;;;;;;1.83;0.90;;;;;;;10.37;45.66;100412.06;5567545;32;34018;-66
2023/04/03 13:15:19;;;;;;;1.27;0.90;;;;;;;10.36;46.59;100413.09;5553938;32;33651;-66
2023/04/03 13:18:31;;;;;;;3.15;1.00;;;;;;;10.34;46.49;100412.41;5568612;31;33862;-66
2023/04/03 13:21:35;;;;;;;1.77;0.90;;;;;;;10.69;45.43;100403.28;5567956;31;33900;-70
2023/04/03 13:24:38;;;;;;;2.08;0.90;;;;;;;11.74;43.77;100400.28;5566288;31;34110;-67
2023/04/03 13:27:42;;;;;;;4.72;1.27;;;;;;;11.92;42.64;100398.19;5568698;31;34025;-67
2023/04/03 13:31:01;;;;;;;1.25;1.00;;;;;;;11.87;42.91;100395.22;5566391;32;33912;-67
2023/04/03 13:34:18;;;;;;;1.00;0.80;;;;;;;12.24;43.68;100393.66;5579183;31;34006;-66
2023/04/03 13:37:28;;;;;;;1.77;1.00;;;;;;;12.03;42.53;100396.94;5574113;31;34395;-67
2023/04/03 13:40:31;;;;;;;1.33;0.88;;;;;;;11.54;43.16;100399.03;5571799;31;33959;-66
2023/04/03 13:43:48;;;;;;;1.80;0.95;;;;;;;11.94;42.36;100392.69;5575304;31;33779;-67
2023/04/03 13:47:01;;;;;;;1.67;1.00;;;;;;;11.56;42.64;100397.03;5580691;31;33856;-67
2023/04/03 13:50:13;;;;;;;2.45;0.90;;;;;;;11.81;42.24;100390.63;5565891;32;33963;-66
2023/04/03 13:53:16;;;;;;;2.35;1.00;;;;;;;11.31;42.42;100394.47;5566950;32;34442;-65
2023/04/03 13:56:32;;;;;;;1.37;0.90;;;;;;;11.93;41.27;100389.19;5567449;31;33874;-66
2023/04/03 13:59:36;;;;;;;1.42;0.93;;;;;;;11.67;41.60;100389.47;5575035;31;34792;-67
2023/04/03 14:02:39;;;;;;;1.67;0.90;;;;;;;12.23;41.81;100374.19;5574612;31;34079;-66
2023/04/03 14:05:42;;;;;;;2.12;0.90;;;;;;;13.92;38.89;100381.28;5576003;31;33634;-66
2023/04/03 14:08:45;;;;;;;3.05;1.12;;;;;;;14.02;37.39;100368.47;5585067;31;35488;-67
2023/04/03 14:11:52;;;;;;;1.02;0.70;;;;;;;13.35;38.79;100371.41;5585598;31;35778;-67
2023/04/03 14:14:55;;;;;;;1.30;0.93;;;;;;;13.39;37.95;100371.84;5580232;31;35434;-67
2023/04/03 14:17:59;;;;;;;1.87;0.90;;;;;;;12.74;39.63;100372.56;5585603;31;34963;-67
2023/04/03 14:21:04;;;;;;;2.50;0.80;;;;;;;11.87;40.45;100359.81;5570377;31;34278;-66
2023/04/03 14:24:07;;;;;;;1.05;0.90;;;;;;;11.91;41.09;100353.97;5566971;31;33642;-66
2023/04/03 14:27:23;;;;;;;1.45;0.95;;;;;;;11.66;41.56;100358.63;5571861;31;34827;-65
2023/04/03 14:30:29;;;;;;;3.10;1.02;;;;;;;11.34;41.75;100356.13;5575768;31;33454;-65
2023/04/03 14:33:34;;;;;;;1.45;0.90;;;;;;;11.11;42.46;100366.66;5577815;31;33945;-66